Terminal Aerodrome Forecast
Issued by NWS Austin/San Antonio, TX

Home | Current Version | Previous Version | Text Only | Print | Product List | Glossary On
Versions: 1 2 3 4 5 6 7 8 9 10 11 12 13 14 15
000
FTUS44 KEWX 292300
TAFSAT
TAF
KSAT 292334Z 3000/3106 11014KT P6SM SCT070 BKN200
     FM300200 13007KT P6SM FEW080 BKN200
     FM300700 15004KT P6SM BKN012
     FM301700 11006KT P6SM SCT060=

USA.gov is the U.S. government's official web portal to all federal, state and local government web resources and services.